createdAt,value
2018-12-04T06:26:46.294Z,3
2018-12-04T06:33:16.650Z,7
2018-12-04T06:36:16.829Z,10
2018-12-04T06:38:46.961Z,13
2018-12-04T06:40:17.074Z,17
2018-12-04T06:41:17.155Z,20
2018-12-04T06:42:17.198Z,23
2018-12-04T06:43:17.259Z,27
2018-12-04T06:43:47.319Z,30
2018-12-04T06:44:17.356Z,37
2018-12-04T06:44:47.386Z,40
2018-12-04T06:45:17.421Z,43
2018-12-04T06:46:17.491Z,47
2018-12-04T06:46:47.568Z,50
2018-12-04T06:47:17.552Z,57
2018-12-04T06:47:47.558Z,63
2018-12-04T06:48:17.718Z,73
2018-12-04T06:48:47.642Z,80
2018-12-04T06:49:17.667Z,83
2018-12-04T06:49:47.694Z,87
2018-12-04T06:50:17.725Z,83
2018-12-04T06:50:47.724Z,87
2018-12-04T06:51:17.792Z,90
2018-12-04T06:51:47.800Z,97
2018-12-04T06:52:17.857Z,107
2018-12-04T06:52:47.861Z,113
2018-12-04T06:53:17.922Z,123
2018-12-04T06:53:47.949Z,130
2018-12-04T06:54:17.977Z,140
2018-12-04T06:54:47.998Z,147
2018-12-04T06:55:18.081Z,160
2018-12-04T06:55:48.042Z,170
2018-12-04T06:56:18.133Z,180
2018-12-04T06:56:48.102Z,193
2018-12-04T06:57:18.160Z,207
2018-12-04T06:57:48.161Z,213
2018-12-04T06:58:18.217Z,227
2018-12-04T06:58:48.227Z,237
2018-12-04T06:59:18.285Z,247
2018-12-04T06:59:48.296Z,263
2018-12-04T07:00:18.342Z,283
2018-12-04T07:00:48.317Z,303
2018-12-04T07:01:18.401Z,317
2018-12-04T07:01:48.377Z,327
2018-12-04T07:02:18.465Z,337
2018-12-04T07:02:48.430Z,347
2018-12-04T07:03:18.529Z,360
2018-12-04T07:03:48.710Z,373
2018-12-04T07:04:18.590Z,387
2018-12-04T07:04:49.437Z,403
2018-12-04T07:05:18.651Z,420
2018-12-04T07:05:48.655Z,433
2018-12-04T07:06:18.713Z,453
2018-12-04T07:06:48.705Z,470
2018-12-04T07:07:18.785Z,490
2018-12-04T07:07:48.745Z,507
2018-12-04T07:08:18.788Z,523
2018-12-04T07:08:48.804Z,543
2018-12-04T07:09:18.851Z,563
2018-12-04T07:09:48.902Z,587
2018-12-04T07:10:18.922Z,607
2018-12-04T07:10:49.130Z,627
2018-12-04T07:11:19.021Z,650
2018-12-04T07:11:49.023Z,667
2018-12-04T07:12:19.086Z,693
2018-12-04T07:12:49.258Z,723
2018-12-04T07:13:19.188Z,760
2018-12-04T07:13:49.172Z,803
2018-12-04T07:14:19.208Z,850
2018-12-04T07:14:49.211Z,907
2018-12-04T07:15:19.271Z,953
2018-12-04T07:15:49.270Z,983
2018-12-04T07:16:49.348Z,973
2018-12-04T07:17:19.357Z,970
2018-12-04T07:17:49.390Z,997
2018-12-04T07:18:19.424Z,1017
2018-12-04T07:18:49.451Z,1063
2018-12-04T07:19:19.507Z,1113
2018-12-04T07:19:49.520Z,1167
2018-12-04T07:20:19.553Z,1197
2018-12-04T07:20:49.559Z,1210
2018-12-04T07:21:19.621Z,1213
2018-12-04T07:21:49.621Z,1210
2018-12-04T07:22:19.669Z,1227
2018-12-04T07:22:49.679Z,1233
2018-12-04T07:23:19.709Z,1267
2018-12-04T07:23:49.740Z,1280
2018-12-04T07:24:19.844Z,1310
2018-12-04T07:24:49.810Z,1340
2018-12-04T07:25:19.853Z,1373
2018-12-04T07:25:49.851Z,1407
2018-12-04T07:26:19.899Z,1430
2018-12-04T07:26:49.915Z,1450
2018-12-04T07:27:19.979Z,1483
2018-12-04T07:27:50.064Z,1490
2018-12-04T07:28:20.018Z,1503
2018-12-04T07:28:50.063Z,1527
2018-12-04T07:29:20.112Z,1550
2018-12-04T07:29:50.174Z,1580
2018-12-04T07:30:20.227Z,1607
2018-12-04T07:30:50.194Z,1633
2018-12-04T07:31:20.234Z,1667
2018-12-04T07:31:50.236Z,1700
2018-12-04T07:32:20.316Z,1727
2018-12-04T07:32:50.331Z,1753
2018-12-04T07:33:20.331Z,1777
2018-12-04T07:33:50.406Z,1810
2018-12-04T07:34:20.454Z,1797
2018-12-04T07:34:50.957Z,1810
2018-12-04T07:35:20.514Z,1830
2018-12-04T07:35:50.521Z,1833
2018-12-04T07:36:20.560Z,1857
2018-12-04T07:36:50.582Z,1877
2018-12-04T07:37:20.606Z,1900
2018-12-04T07:37:50.654Z,1943
2018-12-04T07:38:20.637Z,1960
2018-12-04T07:38:50.693Z,1973
2018-12-04T07:39:20.799Z,2000
2018-12-04T07:39:50.871Z,2017
2018-12-04T07:40:20.755Z,2043
2018-12-04T07:40:50.852Z,2070
2018-12-04T07:41:20.814Z,2100
2018-12-04T07:41:50.916Z,2137
2018-12-04T07:42:20.894Z,2163
2018-12-04T07:42:50.950Z,2193
2018-12-04T07:43:20.968Z,2237
2018-12-04T07:43:51.018Z,2267
2018-12-04T07:44:21.065Z,2323
2018-12-04T07:44:51.132Z,2350
2018-12-04T07:45:21.105Z,2380
2018-12-04T07:45:51.113Z,2420
2018-12-04T07:46:21.187Z,2470
2018-12-04T07:46:51.214Z,2527
2018-12-04T07:47:21.252Z,2597
2018-12-04T07:47:51.210Z,2697
2018-12-04T07:48:21.304Z,2853
2018-12-04T07:48:51.315Z,3037
2018-12-04T07:49:21.347Z,3183
2018-12-04T07:49:51.427Z,3353
2018-12-04T07:50:21.377Z,3623
2018-12-04T07:50:51.447Z,3963
2018-12-04T07:51:21.465Z,4400
2018-12-04T07:51:51.528Z,4517
2018-12-04T07:52:21.526Z,4380
2018-12-04T07:52:51.558Z,4333
2018-12-04T07:53:21.601Z,4870
2018-12-04T07:53:51.620Z,5287
2018-12-04T07:54:21.674Z,5063
2018-12-04T07:54:51.687Z,4453
2018-12-04T07:55:21.722Z,3773
2018-12-04T07:55:51.738Z,3330
2018-12-04T07:56:21.790Z,3170
2018-12-04T07:56:51.801Z,3163
2018-12-04T07:57:21.817Z,3220
2018-12-04T07:57:51.863Z,3373
2018-12-04T07:58:21.864Z,3637
2018-12-04T07:58:51.924Z,4117
2018-12-04T07:59:21.945Z,4510
2018-12-04T07:59:51.990Z,4557
2018-12-04T08:00:22.029Z,4433
2018-12-04T08:00:52.054Z,4193
2018-12-04T08:01:22.056Z,4043
2018-12-04T08:01:52.106Z,3840
2018-12-04T08:02:22.138Z,3930
2018-12-04T08:02:52.163Z,4210
2018-12-04T08:03:22.166Z,4273
2018-12-04T08:03:52.226Z,4097
2018-12-04T08:04:22.295Z,4253
2018-12-04T08:04:52.290Z,4460
2018-12-04T08:05:22.373Z,4627
2018-12-04T08:05:52.357Z,4657
2018-12-04T08:06:22.393Z,4697
2018-12-04T08:06:52.419Z,4920
2018-12-04T08:07:22.464Z,4493
2018-12-04T08:07:52.471Z,4317
2018-12-04T08:08:22.506Z,4537
2018-12-04T08:08:52.529Z,4263
2018-12-04T08:09:22.581Z,5213
2018-12-04T08:09:52.560Z,5483
2018-12-04T08:10:22.623Z,5440
2018-12-04T08:11:22.666Z,4840
2018-12-04T08:11:52.689Z,5393
2018-12-04T08:12:22.720Z,5340
2018-12-04T08:12:52.764Z,4933
2018-12-04T08:13:22.791Z,5580
2018-12-04T08:13:52.819Z,5597
2018-12-04T08:14:22.865Z,5623
2018-12-04T08:14:52.859Z,4530
2018-12-04T08:15:22.909Z,3840
2018-12-04T08:15:52.945Z,3847
2018-12-04T08:16:22.970Z,3987
2018-12-04T08:16:52.986Z,4497
2018-12-04T08:17:23.057Z,4213
2018-12-04T08:17:53.048Z,4267
2018-12-04T08:18:23.137Z,4977
2018-12-04T08:18:53.157Z,4963
2018-12-04T08:19:23.191Z,6317
2018-12-04T08:19:53.179Z,5667
2018-12-04T08:20:23.280Z,6100
2018-12-04T08:20:53.321Z,6970
2018-12-04T08:21:23.295Z,7190
2018-12-04T08:21:53.350Z,7080
2018-12-04T08:22:23.382Z,6027
2018-12-04T08:22:53.395Z,6330
2018-12-04T08:23:23.446Z,5320
2018-12-04T08:23:53.475Z,5313
2018-12-04T08:24:23.518Z,6477
2018-12-04T08:24:53.538Z,7393
2018-12-04T08:25:23.569Z,6643
2018-12-04T08:25:53.541Z,6177
2018-12-04T08:26:23.632Z,7560
2018-12-04T08:26:53.626Z,7543
2018-12-04T08:27:23.696Z,7900
2018-12-04T08:27:53.692Z,7027
2018-12-04T08:28:23.754Z,5850
2018-12-04T08:28:53.750Z,5447
2018-12-04T08:29:23.811Z,6167
2018-12-04T08:29:53.815Z,7550
2018-12-04T08:30:23.877Z,7460
2018-12-04T08:30:53.902Z,7023
2018-12-04T08:31:23.950Z,6750
2018-12-04T08:31:53.937Z,8127
2018-12-04T08:32:24.002Z,8397
2018-12-04T08:32:54.066Z,8557
2018-12-04T08:33:24.063Z,8590
2018-12-04T08:33:54.052Z,8663
2018-12-04T08:34:24.091Z,8547
2018-12-04T08:34:54.117Z,8517
2018-12-04T08:35:24.186Z,8430
2018-12-04T08:35:54.192Z,8323
2018-12-04T08:36:24.243Z,8403
2018-12-04T08:36:54.244Z,8420
2018-12-04T08:37:24.311Z,8650
2018-12-04T08:37:54.335Z,8590
2018-12-04T08:38:24.351Z,8440
2018-12-04T08:38:54.401Z,8213
2018-12-04T08:39:24.429Z,8277
2018-12-04T08:39:54.461Z,8047
2018-12-04T08:40:24.539Z,8160
2018-12-04T08:40:54.523Z,8420
2018-12-04T08:41:24.562Z,8357
2018-12-04T08:41:54.590Z,8413
2018-12-04T08:42:24.652Z,8497
2018-12-04T08:42:54.652Z,8583
2018-12-04T08:43:24.677Z,8893
2018-12-04T08:43:54.692Z,9227
2018-12-04T08:44:24.738Z,9390
2018-12-04T08:44:54.709Z,8710
2018-12-04T08:45:24.809Z,8237
2018-12-04T08:45:54.788Z,8097
2018-12-04T08:46:24.858Z,8743
2018-12-04T08:46:54.890Z,9490
2018-12-04T08:47:24.875Z,9177
2018-12-04T08:47:54.978Z,9930
2018-12-04T08:48:24.938Z,10003
2018-12-04T08:48:55.168Z,8830
2018-12-04T08:49:25.199Z,8997
2018-12-04T08:49:55.073Z,8627
2018-12-04T08:50:25.164Z,8243
2018-12-04T08:50:55.135Z,9067
2018-12-04T08:51:25.167Z,8267
2018-12-04T08:51:55.225Z,8870
2018-12-04T08:52:25.229Z,9113
2018-12-04T08:52:55.267Z,9420
2018-12-04T08:53:25.289Z,9550
2018-12-04T08:53:55.328Z,9497
2018-12-04T08:54:25.364Z,9150
2018-12-04T08:54:55.388Z,8663
2018-12-04T08:55:25.429Z,8977
2018-12-04T08:55:55.447Z,8910
2018-12-04T08:56:25.470Z,9333
2018-12-04T08:56:55.539Z,9937
2018-12-04T08:57:25.498Z,9627
2018-12-04T08:57:55.530Z,9770
2018-12-04T08:58:25.613Z,9767
2018-12-04T08:58:55.578Z,9867
2018-12-04T08:59:25.628Z,9410
2018-12-04T08:59:55.708Z,10350
2018-12-04T09:00:25.719Z,10673
2018-12-04T09:00:55.694Z,9877
2018-12-04T09:01:25.736Z,9187
2018-12-04T09:01:55.751Z,9047
2018-12-04T09:02:25.824Z,8567
2018-12-04T09:02:55.844Z,8140
2018-12-04T09:03:25.899Z,8297
2018-12-04T09:03:59.127Z,7440
2018-12-04T09:04:25.964Z,7893
2018-12-04T09:04:55.934Z,7580
2018-12-04T09:05:25.994Z,7443
2018-12-04T09:05:56.001Z,7953
2018-12-04T09:06:26.219Z,9210
2018-12-04T09:06:56.147Z,9853
2018-12-04T09:07:26.111Z,10637
2018-12-04T09:07:56.173Z,9983
2018-12-04T09:08:26.169Z,10167
2018-12-04T09:08:56.314Z,9470
2018-12-04T09:09:26.272Z,8910
2018-12-04T09:09:56.294Z,8540
2018-12-04T09:10:26.366Z,8917
2018-12-04T09:10:56.351Z,9587
2018-12-04T09:11:26.404Z,9193
2018-12-04T09:11:56.393Z,9363
2018-12-04T09:12:26.506Z,8867
2018-12-04T09:12:56.440Z,9133
2018-12-04T09:13:26.510Z,9457
2018-12-04T09:13:56.536Z,9703
2018-12-04T09:14:26.578Z,10607
2018-12-04T09:14:56.591Z,9707
2018-12-04T09:15:26.749Z,9783
2018-12-04T09:15:56.667Z,11847
2018-12-04T09:16:56.713Z,10907
2018-12-04T09:17:26.816Z,12687
2018-12-04T09:17:56.777Z,12970
2018-12-04T09:18:26.826Z,13090
2018-12-04T09:18:56.884Z,13053
2018-12-04T09:19:26.889Z,12290
2018-12-04T09:19:56.900Z,12333
2018-12-04T09:20:27.042Z,12480
2018-12-04T09:20:56.988Z,13757
2018-12-04T09:21:27.006Z,14057
2018-12-04T09:21:56.982Z,14120
2018-12-04T09:22:27.090Z,14723
2018-12-04T09:22:57.088Z,15037
2018-12-04T09:23:27.129Z,11883
2018-12-04T09:23:57.184Z,15067
2018-12-04T09:24:30.616Z,14433
2018-12-04T09:24:57.208Z,11653
2018-12-04T09:25:27.323Z,10937
2018-12-04T09:25:57.302Z,9773
2018-12-04T09:26:27.337Z,7983
2018-12-04T09:26:57.324Z,8703
2018-12-04T09:27:27.415Z,9287
2018-12-04T09:27:57.428Z,10573
2018-12-04T09:28:27.479Z,11193
2018-12-04T09:28:57.528Z,8457
2018-12-04T09:29:27.516Z,7540
2018-12-04T09:29:57.514Z,8433
2018-12-04T09:30:27.579Z,12217
2018-12-04T09:30:57.566Z,11267
2018-12-04T09:31:27.850Z,11910
2018-12-04T09:31:57.634Z,12970
2018-12-04T09:32:27.691Z,12153
2018-12-04T09:32:57.699Z,11817
2018-12-04T09:33:27.753Z,12157
2018-12-04T09:33:57.764Z,12870
2018-12-04T09:34:29.889Z,10760
2018-12-04T09:34:57.815Z,13113
2018-12-04T09:35:27.877Z,12980
2018-12-04T09:35:57.912Z,12430
2018-12-04T09:36:27.964Z,12330
2018-12-04T09:36:57.967Z,7840
2018-12-04T09:37:27.996Z,11737
2018-12-04T09:37:58.003Z,12160
2018-12-04T09:38:28.094Z,12717
2018-12-04T09:38:58.061Z,13100
2018-12-04T09:39:28.127Z,12510
2018-12-04T09:39:58.164Z,13573
2018-12-04T09:40:28.201Z,13230
2018-12-04T09:40:58.214Z,11980
2018-12-04T09:41:28.255Z,12100
2018-12-04T09:41:58.226Z,12583
2018-12-04T09:42:28.311Z,9430
2018-12-04T09:43:03.948Z,12373
2018-12-04T09:43:28.368Z,13483
2018-12-04T09:43:58.412Z,14283
2018-12-04T09:44:28.437Z,13407
2018-12-04T09:44:58.428Z,12167
2018-12-04T09:45:28.469Z,12563
2018-12-04T09:45:58.500Z,13163
2018-12-04T09:46:28.574Z,12897
2018-12-04T09:46:58.546Z,13050
2018-12-04T09:47:28.617Z,12440
2018-12-04T09:47:58.592Z,6897
2018-12-04T09:48:28.641Z,10623
2018-12-04T09:48:58.650Z,14803
2018-12-04T09:49:28.706Z,15610
2018-12-04T09:49:58.735Z,13517
2018-12-04T09:50:28.758Z,13653
2018-12-04T09:50:58.787Z,13527
2018-12-04T09:51:28.817Z,14487
2018-12-04T09:51:58.866Z,14907
2018-12-04T09:52:28.876Z,15307
2018-12-04T09:52:58.901Z,8567
2018-12-04T09:53:28.952Z,16550
2018-12-04T09:53:58.952Z,16640
2018-12-04T09:54:29.003Z,14980
2018-12-04T09:54:59.064Z,15047
2018-12-04T09:55:29.058Z,15910
2018-12-04T09:55:59.118Z,15463
2018-12-04T09:56:29.140Z,15527
2018-12-04T09:56:59.179Z,16307
2018-12-04T09:57:29.260Z,16080
2018-12-04T09:57:59.231Z,16647
2018-12-04T09:58:29.334Z,16743
2018-12-04T09:58:59.279Z,15757
2018-12-04T09:59:29.353Z,15123
2018-12-04T09:59:59.348Z,15567
2018-12-04T10:00:29.437Z,16307
2018-12-04T10:00:59.446Z,15230
2018-12-04T10:01:29.474Z,15350
2018-12-04T10:01:59.506Z,16103
2018-12-04T10:02:29.538Z,16053
2018-12-04T10:02:59.660Z,16330
2018-12-04T10:03:29.597Z,15260
2018-12-04T10:03:59.605Z,15590
2018-12-04T10:04:29.657Z,15977
2018-12-04T10:04:59.699Z,16483
2018-12-04T10:05:29.718Z,16470
2018-12-04T10:05:59.778Z,16213
2018-12-04T10:06:29.789Z,16210
2018-12-04T10:06:59.796Z,16283
2018-12-04T10:07:29.857Z,16777
2018-12-04T10:07:59.906Z,16473
2018-12-04T10:08:29.905Z,17413
2018-12-04T10:08:59.932Z,17767
2018-12-04T10:09:29.970Z,17730
2018-12-04T10:10:00.678Z,17643
2018-12-04T10:10:30.028Z,17610
2018-12-04T10:11:00.088Z,17553
2018-12-04T10:11:30.091Z,17443
2018-12-04T10:12:00.125Z,15113
2018-12-04T10:12:30.123Z,15397
2018-12-04T10:13:00.183Z,15470
2018-12-04T10:13:30.213Z,16077
2018-12-04T10:14:00.259Z,17690
2018-12-04T10:14:30.273Z,16880
2018-12-04T10:15:02.504Z,17763
2018-12-04T10:15:30.334Z,17880
2018-12-04T10:16:01.945Z,17133
2018-12-04T10:16:30.397Z,16727
2018-12-04T10:17:00.712Z,16770
2018-12-04T10:17:30.469Z,17357
2018-12-04T10:18:01.716Z,16953
2018-12-04T10:18:30.596Z,16933
2018-12-04T10:19:01.919Z,16727
2018-12-04T10:19:30.581Z,17220
2018-12-04T10:20:01.402Z,16613
2018-12-04T10:20:30.667Z,14440
2018-12-04T10:21:00.737Z,11913
2018-12-04T10:21:30.719Z,9287
2018-12-04T10:22:00.734Z,7423
2018-12-04T10:22:30.769Z,7070
2018-12-04T10:23:00.735Z,7060
2018-12-04T10:23:30.828Z,7040
2018-12-04T10:24:00.894Z,7027
2018-12-04T10:25:00.884Z,7030
2018-12-04T10:25:30.953Z,7023
2018-12-04T10:26:00.942Z,7000
2018-12-04T10:26:31.038Z,6993
2018-12-04T10:27:01.023Z,7003
2018-12-04T10:27:31.080Z,7017
2018-12-04T10:28:01.038Z,7007
2018-12-04T10:28:31.137Z,7017
2018-12-04T10:29:01.098Z,7000
2018-12-04T10:29:31.207Z,6963
2018-12-04T10:30:01.241Z,6933
2018-12-04T10:30:31.216Z,6927
2018-12-04T10:31:01.241Z,6923
2018-12-04T10:31:31.320Z,6913
2018-12-04T10:32:01.297Z,6907
2018-12-04T10:32:31.384Z,6903
2018-12-04T10:33:01.350Z,6917
2018-12-04T10:33:31.468Z,6940
2018-12-04T10:34:01.422Z,6930
2018-12-04T10:34:31.501Z,6943
2018-12-04T10:35:01.548Z,6883
2018-12-04T10:35:31.529Z,6870
2018-12-04T10:36:01.567Z,6817
2018-12-04T10:36:31.751Z,6803
2018-12-04T10:37:01.653Z,6770
2018-12-04T10:37:31.644Z,6807
2018-12-04T10:38:01.704Z,6773
2018-12-04T10:38:31.770Z,6733
2018-12-04T10:39:01.736Z,6730
2018-12-04T10:39:31.809Z,6750
2018-12-04T10:40:01.809Z,6767
2018-12-04T10:40:32.779Z,6780
2018-12-04T10:41:01.883Z,6810
2018-12-04T10:41:31.908Z,6857
2018-12-04T10:42:01.909Z,6847
2018-12-04T10:42:31.946Z,6893
2018-12-04T10:43:02.000Z,6860
2018-12-04T10:43:32.028Z,6903
2018-12-04T10:44:02.024Z,6927
2018-12-04T10:44:32.074Z,6920
2018-12-04T10:45:02.174Z,6967
2018-12-04T10:45:32.160Z,6980
2018-12-04T10:46:02.186Z,7017
2018-12-04T10:46:32.196Z,7067
2018-12-04T10:47:02.256Z,7157
2018-12-04T10:47:32.258Z,7177
2018-12-04T10:48:02.301Z,7207
2018-12-04T10:48:32.343Z,6893
2018-12-04T10:49:02.395Z,7287
2018-12-04T10:49:32.461Z,7350
2018-12-04T10:50:02.509Z,7393
2018-12-04T10:50:32.489Z,7467
2018-12-04T10:51:02.494Z,7537
2018-12-04T10:51:32.564Z,7587
2018-12-04T10:52:02.545Z,7613
2018-12-04T10:52:32.611Z,7583
2018-12-04T10:53:02.579Z,7557
2018-12-04T10:53:32.633Z,7500
2018-12-04T10:54:02.665Z,7467
2018-12-04T10:54:32.739Z,7453
2018-12-04T10:55:02.825Z,7417
2018-12-04T10:55:32.823Z,7420
2018-12-04T10:56:02.789Z,7423
2018-12-04T10:56:32.860Z,7437
2018-12-04T10:57:02.908Z,7400
2018-12-04T10:57:32.916Z,7337
2018-12-04T10:58:02.887Z,7093
2018-12-04T10:58:32.984Z,7317
2018-12-04T10:59:02.975Z,7333
2018-12-04T10:59:33.043Z,7307
2018-12-04T11:00:03.041Z,7287
2018-12-04T11:00:33.112Z,7283
2018-12-04T11:01:03.091Z,7257
2018-12-04T11:01:33.163Z,7253
2018-12-04T11:02:03.199Z,7243
2018-12-04T11:03:03.238Z,7250
2018-12-04T11:03:33.283Z,7263
2018-12-04T11:04:03.317Z,7283
2018-12-04T11:04:33.301Z,7290
2018-12-04T11:05:03.433Z,7300
2018-12-04T11:05:33.499Z,7280
2018-12-04T11:06:03.912Z,7290
2018-12-04T11:06:33.504Z,7273
2018-12-04T11:07:03.503Z,7270
2018-12-04T11:08:03.503Z,7273
2018-12-04T11:08:33.597Z,7293
2018-12-04T11:09:03.620Z,7287
2018-12-04T11:09:33.663Z,7300
2018-12-04T11:10:03.665Z,7313
2018-12-04T11:10:33.727Z,7353
2018-12-04T11:11:03.774Z,7453
2018-12-04T11:11:34.990Z,7467
2018-12-04T11:12:03.833Z,7370
2018-12-04T11:12:33.877Z,7273
2018-12-04T11:13:03.900Z,6947
2018-12-04T11:13:33.932Z,7000
2018-12-04T11:14:03.944Z,7337
2018-12-04T11:14:33.964Z,7297
2018-12-04T11:15:04.069Z,7263
2018-12-04T11:15:34.955Z,7240
2018-12-04T11:16:04.063Z,7233
2018-12-04T11:16:34.089Z,7220
2018-12-04T11:17:04.152Z,7143
2018-12-04T11:17:34.149Z,7200
2018-12-04T11:18:04.182Z,7173
2018-12-04T11:18:34.206Z,7147
2018-12-04T11:19:04.183Z,7133
2018-12-04T11:19:34.301Z,7137
2018-12-04T11:20:04.311Z,7180
2018-12-04T11:20:34.343Z,7253
2018-12-04T11:21:04.314Z,7277
2018-12-04T11:21:34.402Z,7183
2018-12-04T11:22:04.363Z,7130
2018-12-04T11:22:34.466Z,7107
2018-12-04T11:23:04.458Z,7073
2018-12-04T11:23:34.486Z,7043
2018-12-04T11:24:04.523Z,7013
2018-12-04T11:24:34.597Z,6953
2018-12-04T11:25:04.570Z,6900
2018-12-04T11:25:34.614Z,6843
2018-12-04T11:26:04.614Z,6837
2018-12-04T11:26:34.670Z,6820
2018-12-04T11:27:04.697Z,6800
2018-12-04T11:27:34.714Z,6760
2018-12-04T11:28:04.760Z,6743
2018-12-04T11:28:34.795Z,6703
2018-12-04T11:29:04.837Z,6697
2018-12-04T11:29:34.880Z,6723
2018-12-04T11:30:04.874Z,6707
2018-12-04T11:31:04.926Z,6687
2018-12-04T11:32:04.982Z,6653
2018-12-04T11:32:35.052Z,6713
2018-12-04T11:33:05.112Z,6563
2018-12-04T11:33:35.103Z,6790
2018-12-04T11:34:05.143Z,6880
2018-12-04T11:34:35.145Z,6907
2018-12-04T11:35:05.191Z,6893
2018-12-04T11:35:35.259Z,6880
2018-12-04T11:36:05.261Z,6887
2018-12-04T11:36:35.328Z,6873
2018-12-04T11:37:05.342Z,6900
2018-12-04T11:37:35.394Z,6917
2018-12-04T11:38:05.402Z,6913
2018-12-04T11:38:35.450Z,6880
2018-12-04T11:39:05.454Z,6860
2018-12-04T11:39:35.522Z,6773
2018-12-04T11:40:05.591Z,6630
2018-12-04T11:40:35.590Z,6677
2018-12-04T11:41:05.588Z,6717
2018-12-04T11:41:35.679Z,6780
2018-12-04T11:42:05.639Z,6830
2018-12-04T11:42:35.690Z,6823
2018-12-04T11:43:05.665Z,6737
2018-12-04T11:43:35.704Z,6790
2018-12-04T11:44:05.789Z,6763
2018-12-04T11:45:05.821Z,6770
2018-12-04T11:45:35.881Z,6767
2018-12-04T11:46:35.939Z,6743
2018-12-04T11:47:05.949Z,6723
2018-12-04T11:47:35.993Z,6730
2018-12-04T11:48:05.998Z,6737
2018-12-04T11:48:36.054Z,6760
2018-12-04T11:49:06.066Z,6770
2018-12-04T11:49:36.988Z,6760
2018-12-04T11:50:06.130Z,6747
2018-12-04T11:50:36.232Z,6750
2018-12-04T11:51:06.201Z,6790
2018-12-04T11:51:36.255Z,6820
2018-12-04T11:53:06.318Z,6827
2018-12-04T11:53:36.373Z,6837
2018-12-04T11:54:06.380Z,6847
2018-12-04T11:54:36.483Z,6867
2018-12-04T11:55:06.443Z,6900
2018-12-04T11:55:36.489Z,6917
2018-12-04T11:56:06.533Z,6910
2018-12-04T11:56:36.557Z,6903
2018-12-04T11:57:06.561Z,6873
2018-12-04T11:57:36.613Z,6830
2018-12-04T11:58:06.575Z,6813
2018-12-04T11:58:36.677Z,6810
2018-12-04T11:59:06.677Z,6773
2018-12-04T11:59:36.745Z,6717
2018-12-04T12:00:06.744Z,6707
2018-12-04T12:00:36.831Z,6713
2018-12-04T12:01:06.796Z,6730
2018-12-04T12:01:36.907Z,6760
2018-12-04T12:02:10.765Z,6780
2018-12-04T12:02:36.925Z,6773
2018-12-04T12:03:06.920Z,6643
2018-12-04T12:03:36.976Z,6787
2018-12-04T12:04:06.978Z,6780
2018-12-04T12:04:37.040Z,6757
2018-12-04T12:05:07.039Z,6730
2018-12-04T12:05:37.103Z,6703
2018-12-04T12:06:07.144Z,6680
2018-12-04T12:06:37.177Z,6670
2018-12-04T12:07:07.169Z,6663
2018-12-04T12:07:37.263Z,6677
2018-12-04T12:08:07.226Z,6680
2018-12-04T12:09:07.283Z,6693
2018-12-04T12:09:37.413Z,6670
2018-12-04T12:10:07.349Z,6663
2018-12-04T12:10:37.420Z,6653
2018-12-04T12:11:07.420Z,6647
2018-12-04T12:11:37.467Z,6643
2018-12-04T12:12:07.483Z,6660
2018-12-04T12:12:37.543Z,6647
2018-12-04T12:13:07.525Z,6637
2018-12-04T12:13:37.596Z,6650
2018-12-04T12:14:07.630Z,6637
2018-12-04T12:14:37.609Z,6577
2018-12-04T12:15:07.669Z,6597
2018-12-04T12:15:37.679Z,6593
2018-12-04T12:16:07.754Z,6610
2018-12-04T12:16:37.810Z,6630
2018-12-04T12:17:07.759Z,6640
2018-12-04T12:17:37.857Z,6647
2018-12-04T12:18:07.813Z,6653
2018-12-04T12:18:37.857Z,6647
2018-12-04T12:19:07.873Z,6670
2018-12-04T12:19:37.932Z,6677
2018-12-04T12:20:07.929Z,6663
2018-12-04T12:20:38.005Z,6640
2018-12-04T12:21:08.315Z,6627
2018-12-04T12:21:38.135Z,6623
2018-12-04T12:22:08.081Z,6613
2018-12-04T12:22:38.110Z,6617
2018-12-04T12:23:08.152Z,6630
2018-12-04T12:24:08.212Z,6640
2018-12-04T12:24:38.236Z,6627
2018-12-04T12:25:08.273Z,6617
2018-12-04T12:25:38.331Z,6580
2018-12-04T12:26:08.302Z,6550
2018-12-04T12:26:38.422Z,6470
2018-12-04T12:27:08.394Z,6423
2018-12-04T12:27:38.452Z,6393
2018-12-04T12:28:08.524Z,6483
2018-12-04T12:28:38.482Z,6537
2018-12-04T12:29:08.565Z,6530
2018-12-04T12:29:38.575Z,6523
2018-12-04T12:30:08.552Z,6490
2018-12-04T12:30:38.642Z,6473
2018-12-04T12:31:08.663Z,6463
2018-12-04T12:31:38.702Z,6423
2018-12-04T12:32:08.727Z,6390
2018-12-04T12:33:08.802Z,6340
2018-12-04T12:33:38.781Z,6283
2018-12-04T12:34:08.857Z,6247
2018-12-04T12:34:38.885Z,6237
2018-12-04T12:35:08.938Z,6223
2018-12-04T12:35:38.949Z,6233
2018-12-04T12:36:09.001Z,6253
2018-12-04T12:36:39.015Z,6283
2018-12-04T12:37:09.007Z,6330
2018-12-04T12:37:39.066Z,6350
2018-12-04T12:38:09.140Z,6343
2018-12-04T12:38:39.141Z,6313
2018-12-04T12:40:09.321Z,6293
2018-12-04T12:40:39.210Z,6277
2018-12-04T12:41:09.303Z,6243
2018-12-04T12:41:39.314Z,6183
2018-12-04T12:42:09.371Z,6123
2018-12-04T12:42:39.378Z,6207
2018-12-04T12:43:09.410Z,6210
2018-12-04T12:43:39.452Z,6203
2018-12-04T12:44:09.474Z,6200
2018-12-04T12:45:09.584Z,6227
2018-12-04T12:45:39.519Z,6260
2018-12-04T12:46:09.591Z,6280
2018-12-04T12:46:39.644Z,6260
2018-12-04T12:47:09.651Z,6293
2018-12-04T12:47:39.690Z,6340
2018-12-04T12:48:09.708Z,6400
2018-12-04T12:48:39.751Z,6487
2018-12-04T12:49:09.773Z,6667
2018-12-04T12:49:39.809Z,7280
2018-12-04T12:50:09.881Z,7883
2018-12-04T12:50:39.876Z,7777
2018-12-04T12:51:09.882Z,7270
2018-12-04T12:51:39.941Z,6873
2018-12-04T12:52:09.946Z,6627
2018-12-04T12:52:39.996Z,6457
2018-12-04T12:53:09.962Z,6383
2018-12-04T12:53:40.056Z,6353
2018-12-04T12:54:10.075Z,6367
2018-12-04T12:54:40.136Z,6370
2018-12-04T12:56:10.182Z,6383
2018-12-04T12:56:40.949Z,6363
2018-12-04T12:57:10.271Z,6290
2018-12-04T12:57:40.428Z,6230
2018-12-04T12:58:10.311Z,6290
2018-12-04T12:58:40.365Z,6353
2018-12-04T12:59:10.371Z,6343
2018-12-04T12:59:41.264Z,6187
2018-12-04T13:00:10.398Z,6003
2018-12-04T13:00:40.460Z,6177
2018-12-04T13:01:10.525Z,6237
2018-12-04T13:01:40.530Z,6230
2018-12-04T13:02:10.526Z,6210
2018-12-04T13:02:40.574Z,6137
2018-12-04T13:03:10.590Z,6040
2018-12-04T13:03:40.647Z,6103
2018-12-04T13:04:10.676Z,6167
2018-12-04T13:04:40.737Z,6120
2018-12-04T13:05:10.741Z,6033
2018-12-04T13:05:40.953Z,6020
2018-12-04T13:06:10.790Z,6087
2018-12-04T13:06:40.815Z,6113
2018-12-04T13:07:10.824Z,6147
2018-12-04T13:07:40.881Z,6233
2018-12-04T13:08:10.889Z,6243
2018-12-04T13:08:40.953Z,6103
2018-12-04T13:09:10.969Z,6000
2018-12-04T13:09:41.051Z,6017
2018-12-04T13:10:11.034Z,5983
2018-12-04T13:10:41.111Z,6080
2018-12-04T13:11:11.114Z,6367
2018-12-04T13:11:41.164Z,6727
2018-12-04T13:12:11.164Z,7137
2018-12-04T13:12:41.199Z,7220
2018-12-04T13:13:11.242Z,7023
2018-12-04T13:13:41.313Z,6810
2018-12-04T13:14:11.307Z,6583
2018-12-04T13:14:41.370Z,6273
2018-12-04T13:15:11.359Z,5980
2018-12-04T13:15:41.418Z,5820
2018-12-04T13:16:11.498Z,5740
2018-12-04T13:16:41.477Z,5573
2018-12-04T13:17:11.483Z,5253
2018-12-04T13:17:41.566Z,5213
2018-12-04T13:18:11.563Z,5490
2018-12-04T13:18:41.602Z,5597
2018-12-04T13:19:11.603Z,5677
2018-12-04T13:19:41.664Z,5743
2018-12-04T13:20:11.722Z,5570
2018-12-04T13:20:41.746Z,5313
2018-12-04T13:21:11.742Z,5333
2018-12-04T13:21:41.779Z,5353
2018-12-04T13:22:11.807Z,5467
2018-12-04T13:22:41.845Z,5483
2018-12-04T13:23:11.836Z,5477
2018-12-04T13:23:41.860Z,5470
2018-12-04T13:24:11.893Z,5390
2018-12-04T13:24:41.962Z,5247
2018-12-04T13:25:11.961Z,5147
2018-12-04T13:25:42.070Z,5090
2018-12-04T13:26:12.082Z,5060
2018-12-04T13:26:42.041Z,5123
2018-12-04T13:27:12.151Z,5160
2018-12-04T13:27:42.159Z,5133
2018-12-04T13:28:12.139Z,5037
2018-12-04T13:28:42.219Z,4980
2018-12-04T13:29:12.242Z,5157